Overton Beach, Nevada
Current Conditions -  °F | °C
As of 3:58 PM on Friday 31 Oct 2014 (Local Time) from KLSV Reporting Station
Clear Clear  
Wind Chill: 83°   Ceiling: Unl
Heat Index: 83°   Visibility: 10mi
Dew Point: 38°   Wind: 14mph
Humidity: 19%   Direction: 150°SSE
Pressure: 29.74"   Gusts: 26mph
Location:  36.5809°N, 114.605°W
Report Text: KLSV 312258Z AUTO 15012G23KT 10SM CLR 29/03 A2974 RMK AO2 SLP053 T02860031 $
Loading
Personal Weather Stations






























Interactive Weather Map
Tropical Storm Tracking
New forecast layout! Learn more

10-Day Weather Forecast

Advertisements
Track Severe Weather on mobile